Date,TemperatureHighF,TemperatureAvgF,TemperatureLowF,DewpointHighF,DewpointAvgF,DewpointLowF,HumidityHigh,HumidityAvg,HumidityLow,PressureMaxIn,PressureMinIn,WindSpeedMaxMPH,WindSpeedAvgMPH,GustSpeedMaxMPH,PrecipitationSumIn
2013-1-1,13.8,9.2,5.7,8.8,6.1,3.0,90,87,76,30.45,30.05,14,4,17,0.00
2013-1-2,22.5,7.7,0.0,13.1,2.9,-3.3,89,81,61,30.54,30.39,8,1,11,0.00
2013-1-3,16.9,5.7,-3.5,7.0,-0.2,-6.7,91,77,58,30.68,30.54,8,1,11,0.00
2013-1-4,24.6,11.2,1.6,3.6,-3.0,-7.8,79,54,33,30.65,30.39,14,2,17,0.00
2013-1-5,34.3,21.0,7.5,10.2,-0.2,-9.8,70,42,20,30.57,30.42,10,2,10,0.01
2013-1-6,39.4,26.4,17.8,0.1,-3.3,-8.5,39,28,13,30.50,30.17,14,2,14,0.00
2013-1-7,41.9,29.0,19.8,10.9,0.7,-19.5,50,31,12,30.17,29.93,7,2,10,0.00
2013-1-8,42.4,27.9,18.9,9.5,6.2,-1.7,60,41,19,30.30,29.93,7,1,7,0.00
2013-1-9,42.8,27.0,16.0,10.6,7.4,3.9,61,44,24,30.48,30.22,5,1,8,0.00
2013-1-10,36.9,29.1,23.2,11.5,4.4,-4.4,48,35,18,30.22,29.62,18,3,19,0.00
2013-1-11,29.1,13.5,0.9,16.9,3.1,-7.2,89,63,45,29.95,29.38,34,9,36,0.01
2013-1-12,10.2,1.5,-6.2,-4.5,-9.5,-19.8,81,62,26,30.28,29.94,13,2,18,0.00
2013-1-13,8.2,1.4,-3.8,-4.5,-6.5,-8.5,82,70,51,30.40,30.28,20,3,21,0.00
2013-1-14,12.4,4.2,-3.3,5.5,-0.1,-6.3,88,82,70,30.40,30.25,9,1,10,0.00
2013-1-15,12.0,2.6,-4.7,3.9,-2.9,-8.3,89,78,64,30.70,30.34,10,2,10,0.00
2013-1-16,35.1,18.1,2.8,16.7,8.0,-5.1,84,66,42,30.79,30.61,8,2,10,0.03
2013-1-17,35.1,25.4,18.5,16.2,14.1,12.4,81,63,44,30.66,30.46,11,2,15,0.00
2013-1-18,36.0,26.1,17.4,15.6,13.4,10.9,80,60,40,30.47,30.29,13,3,14,0.01
2013-1-19,43.9,29.1,18.1,13.6,5.1,-2.4,73,39,18,30.44,30.29,9,2,12,0.00
2013-1-20,42.1,29.9,22.8,6.4,0.9,-7.2,39,30,15,30.37,30.13,15,3,15,0.00
2013-1-21,40.5,28.4,18.0,10.0,5.5,-0.2,51,38,26,30.32,30.21,13,2,20,0.00
2013-1-22,44.1,34.2,24.8,5.7,-2.5,-14.3,42,22,12,30.32,30.21,16,2,17,0.00
2013-1-23,51.4,37.2,28.0,3.4,-10.3,-27.8,27,13,4,30.34,30.20,16,2,19,0.00
2013-1-24,41.2,35.9,30.2,23.5,8.7,-6.0,72,35,15,30.24,29.99,24,5,29,0.00
2013-1-25,40.8,32.6,26.2,31.1,27.1,20.5,91,80,67,30.25,30.07,16,4,21,0.00
2013-1-26,42.6,33.8,28.9,35.2,31.5,27.7,97,92,75,30.10,29.77,22,4,32,0.04
2013-1-27,33.3,31.1,29.8,30.4,29.4,27.1,98,93,86,29.88,29.68,22,5,24,0.04
2013-1-28,34.5,28.2,18.0,28.9,25.0,16.3,96,88,69,29.84,29.60,26,6,26,0.00
2013-1-29,18.0,12.2,4.3,16.3,9.8,0.9,93,90,85,30.09,29.56,16,4,18,0.00
2013-1-30,16.9,8.9,-0.6,13.6,5.1,-4.7,89,84,79,30.50,30.09,25,4,25,0.00
2013-1-31,31.8,21.3,14.7,18.5,15.5,12.2,92,79,53,30.51,30.33,20,5,21,0.00
2013-2-1,34.9,25.3,19.8,18.5,15.7,12.9,83,68,44,30.34,30.21,18,6,21,0.00
2013-2-2,40.3,28.2,18.7,18.9,13.4,5.2,89,58,24,30.46,30.33,11,2,12,0.01
2013-2-3,39.4,29.4,21.9,17.4,8.3,-6.2,73,43,15,30.38,29.96,14,3,16,0.00
2013-2-4,39.0,28.1,19.0,19.4,14.6,0.7,86,61,21,30.09,29.98,17,3,18,0.00
2013-2-5,49.1,36.5,23.2,16.9,12.2,8.4,73,38,22,30.14,29.97,9,2,10,0.00
2013-2-6,40.3,32.5,26.6,20.5,16.2,12.7,71,51,38,29.97,29.76,15,3,17,0.00
2013-2-7,37.4,29.5,23.0,21.4,18.3,12.7,91,65,37,30.18,30.07,8,2,9,0.01
2013-2-8,38.7,26.5,20.7,20.7,17.4,11.8,92,69,41,30.18,29.89,7,1,13,0.00
2013-2-9,34.0,20.3,12.6,20.1,10.7,-1.1,95,71,25,29.89,29.50,22,4,32,0.00
2013-2-10,19.4,14.1,10.9,14.2,10.2,6.6,91,84,73,30.19,29.72,13,4,25,0.00
2013-2-11,22.8,15.0,9.5,12.7,9.1,3.7,90,78,47,30.20,30.08,15,2,16,0.00
2013-2-12,21.4,13.2,5.2,10.8,4.2,-6.5,93,70,30,30.35,30.12,12,2,18,0.00
2013-2-13,31.1,18.9,7.9,13.3,8.4,3.4,85,65,45,30.36,30.20,15,3,16,0.02
2013-2-14,36.9,21.9,12.7,15.6,10.5,2.5,93,64,30,30.29,30.12,11,2,15,0.00
2013-2-15,28.8,19.6,12.0,16.2,5.5,-7.1,93,60,24,30.53,30.28,19,2,19,0.00
2013-2-16,36.7,26.5,14.2,9.9,4.0,-0.6,55,38,26,30.53,30.20,14,4,19,0.01
2013-2-17,40.1,30.5,21.7,9.1,-0.1,-19.7,54,30,7,30.20,29.69,16,4,20,0.00
2013-2-18,29.7,22.8,16.5,9.5,2.8,-4.4,60,43,25,30.19,29.65,21,4,22,0.00
2013-2-19,38.1,26.0,14.4,17.6,-0.7,-38.7,89,38,6,30.20,29.82,13,2,19,0.00
2013-2-20,30.9,22.1,16.5,25.3,19.3,14.4,95,89,70,29.82,29.47,13,2,18,0.00
2013-2-21,24.3,18.1,13.5,18.7,15.1,11.3,93,88,75,29.97,29.56,16,4,20,0.00
2013-2-22,23.4,17.1,11.7,17.1,14.1,9.3,92,88,71,30.08,29.94,13,3,15,0.00
2013-2-23,30.7,18.7,7.3,14.0,9.8,4.8,91,70,43,30.13,29.84,16,4,18,0.00
2013-2-24,29.5,17.9,11.5,17.8,11.7,3.9,92,78,43,29.93,29.67,40,7,41,0.01
2013-2-25,27.9,17.6,4.1,7.0,3.3,-4.2,89,56,26,30.17,29.91,38,4,41,0.00
2013-2-26,23.7,16.5,9.5,10.6,5.4,-1.5,90,63,39,30.19,29.80,18,4,22,0.00
2013-2-27,27.1,14.9,4.8,8.8,2.7,-6.3,90,62,23,30.46,30.19,11,1,12,0.00
2013-2-28,31.6,18.5,8.1,5.2,0.7,-4.4,67,47,21,30.50,30.39,14,2,14,0.00
2013-3-1,38.3,26.0,12.9,15.1,10.3,4.3,73,52,31,30.50,30.37,18,2,19,0.00
2013-3-2,46.0,33.7,22.3,19.8,15.4,12.6,70,49,28,30.45,30.18,12,3,15,0.01
2013-3-3,44.8,35.9,30.0,19.8,16.1,10.9,62,45,27,30.19,29.69,26,5,30,0.00
2013-3-4,36.1,32.1,22.3,23.7,19.8,14.5,73,60,48,30.05,29.67,19,4,21,0.00
2013-3-5,45.1,30.9,18.9,16.2,5.1,-11.6,75,39,10,30.30,30.05,14,3,15,0.00
2013-3-6,45.9,36.6,28.9,21.7,16.2,8.2,56,44,35,30.23,29.91,15,4,16,0.00
2013-3-7,50.4,40.2,33.4,15.8,11.8,2.8,46,32,16,29.95,29.84,17,4,22,0.00
2013-3-8,46.6,34.9,25.9,27.5,19.4,12.7,94,57,27,29.85,29.55,16,2,20,0.00
2013-3-9,25.5,18.8,14.4,24.1,16.1,11.3,94,89,73,30.08,29.54,19,5,23,0.00
2013-3-10,29.7,20.2,12.0,15.3,12.1,7.7,93,73,41,30.30,30.08,10,2,11,0.06
2013-3-11,39.4,28.9,18.9,21.0,16.0,9.0,75,60,29,30.31,30.03,17,4,18,0.00
2013-3-12,43.9,33.1,23.0,21.2,18.8,14.0,79,58,33,30.24,30.06,14,3,18,0.00
2013-3-13,49.1,38.0,28.2,23.5,20.7,15.6,74,52,28,30.27,30.19,11,3,15,0.00
2013-3-14,56.8,42.8,31.3,21.7,17.3,12.2,56,37,18,30.27,30.11,10,2,13,0.00
2013-3-15,57.2,45.4,33.1,17.6,12.9,5.5,49,28,14,30.11,29.77,15,2,19,0.00
2013-3-16,48.2,42.2,30.9,30.7,20.1,12.0,95,44,27,29.78,29.56,12,2,15,0.00
2013-3-17,42.4,33.5,28.0,31.1,23.1,6.3,96,71,27,29.80,29.57,20,4,29,0.01
2013-3-18,40.6,32.7,24.3,11.7,7.1,-0.2,54,35,19,29.99,29.78,19,4,21,0.01
2013-3-19,39.0,33.0,27.0,20.5,8.6,-0.2,60,37,24,30.17,29.94,18,3,20,0.00
2013-3-20,43.2,33.3,23.7,23.5,17.0,12.4,66,52,34,30.19,29.80,22,4,27,0.00
2013-3-21,44.8,37.2,32.4,27.0,17.9,4.3,71,49,22,29.80,29.46,23,6,30,0.00
2013-3-22,37.9,32.8,27.1,17.2,9.0,-1.1,49,37,22,29.69,29.55,25,4,25,0.00
2013-3-23,33.6,19.3,6.1,8.4,0.7,-13.5,86,47,23,30.12,29.57,24,4,27,0.00
2013-3-24,27.9,15.6,3.7,10.4,0.1,-8.0,87,54,27,30.31,30.12,19,4,23,0.00
2013-3-25,32.0,17.8,5.0,10.0,3.0,-5.1,91,58,21,30.41,30.27,17,2,18,0.00
2013-3-26,45.3,30.7,14.7,14.2,9.1,2.8,61,42,25,30.40,30.05,15,3,22,0.00
2013-3-27,51.4,40.2,32.2,16.7,9.7,3.2,40,29,16,30.05,29.90,17,4,20,0.00
2013-3-28,52.2,41.3,33.4,16.5,9.5,4.3,37,27,16,30.03,29.91,13,2,21,0.00
2013-3-29,52.3,40.9,33.6,27.3,16.1,7.5,76,39,24,30.04,29.92,14,2,14,0.00
2013-3-30,53.8,42.6,33.4,27.3,20.8,12.7,65,44,22,30.08,29.88,12,2,15,0.00
2013-3-31,51.3,40.1,28.9,30.7,23.8,14.4,93,57,26,29.98,29.86,14,2,16,0.00
2013-4-1,53.8,44.0,34.2,25.9,16.5,5.0,57,34,16,29.94,29.71,11,2,18,0.00
2013-4-2,50.2,37.1,28.2,28.4,18.0,7.3,92,51,19,29.88,29.62,16,1,16,0.00
2013-4-3,44.2,32.1,25.0,28.6,24.7,14.0,95,76,31,30.18,29.87,11,2,14,0.00
2013-4-4,54.3,40.1,26.2,26.2,18.2,8.2,88,49,20,30.23,30.05,10,2,16,0.00
2013-4-5,55.6,46.2,39.4,20.3,14.1,8.1,41,27,19,30.05,29.65,20,4,22,0.00
2013-4-6,54.7,44.6,34.7,25.2,21.0,18.0,61,40,26,29.77,29.65,14,4,20,0.00
2013-4-7,52.2,44.3,37.8,23.9,18.4,12.7,54,37,22,29.70,29.55,20,6,29,0.00
2013-4-8,58.5,45.4,35.8,23.9,17.7,9.9,53,34,15,29.57,29.21,13,3,17,0.00
2013-4-9,41.7,27.8,17.8,27.3,21.6,15.6,96,78,45,29.76,29.19,14,1,15,0.00
2013-4-10,28.0,23.6,19.8,23.0,20.1,16.3,96,86,72,29.99,29.76,17,4,18,0.00
2013-4-11,44.4,28.9,15.3,28.9,20.2,12.6,96,72,38,30.02,29.89,18,3,19,0.10
2013-4-12,47.8,36.4,28.8,28.9,23.5,12.6,96,65,26,29.95,29.80,16,2,19,0.01
2013-4-13,52.0,40.4,26.8,24.3,17.2,9.5,80,43,22,29.91,29.44,23,5,29,0.00
2013-4-14,47.7,42.1,36.3,24.4,21.7,18.1,55,44,35,29.52,29.33,21,6,33,0.00
2013-4-15,56.1,45.1,35.6,22.8,19.8,13.3,55,38,19,29.55,29.41,20,6,30,0.00
2013-4-16,60.1,46.6,38.7,23.0,15.9,6.3,47,30,16,29.61,29.42,19,4,25,0.00
2013-4-17,45.1,34.3,19.9,26.8,16.9,3.7,94,56,19,29.73,29.38,14,4,18,0.00
2013-4-18,25.2,18.4,11.7,15.3,10.8,1.9,89,73,47,30.37,29.73,14,3,16,0.00
2013-4-19,43.0,26.8,10.8,12.0,4.2,-0.6,68,41,20,30.46,30.06,15,3,21,0.01
2013-4-20,43.2,34.4,28.9,26.4,16.9,3.7,77,49,28,30.07,29.82,22,4,24,0.00
2013-4-21,52.5,39.1,28.0,24.4,15.4,1.0,76,44,15,30.09,29.92,17,4,21,0.00
2013-4-22,56.1,45.5,35.8,26.8,14.8,9.5,65,30,18,29.96,29.64,24,4,27,0.00
2013-4-23,41.4,31.2,18.7,28.0,21.9,-5.8,93,73,14,30.07,29.62,17,3,26,0.02
2013-4-24,51.6,34.5,18.1,19.2,5.9,-8.1,92,36,11,30.22,30.07,14,3,17,0.00
2013-4-25,54.9,38.4,28.6,33.4,24.9,18.5,96,61,30,30.19,29.83,13,1,17,0.10
2013-4-26,47.7,36.7,30.6,35.2,31.0,25.5,97,82,45,30.22,29.91,15,2,15,0.17
2013-4-27,57.0,42.4,27.7,31.6,22.5,15.1,97,53,21,30.23,30.03,14,1,14,0.01
2013-4-28,62.8,49.4,35.4,22.8,12.0,3.6,48,25,10,30.03,29.72,13,2,15,0.00
2013-4-29,64.2,52.8,41.5,21.4,14.7,10.2,39,23,13,29.74,29.48,16,3,21,0.00
2013-4-30,65.8,55.1,46.8,19.4,13.5,7.7,26,20,12,29.56,29.41,19,4,23,0.00
2013-5-1,60.1,45.7,23.2,29.7,18.9,9.0,80,39,18,29.96,29.49,14,3,18,0.00
2013-5-2,45.3,27.2,13.3,17.6,10.0,-7.4,86,55,13,30.49,29.97,21,3,23,0.00
2013-5-3,52.5,36.4,20.1,14.0,9.1,3.6,64,36,14,30.45,30.02,12,2,13,0.00
2013-5-4,61.9,41.6,25.7,17.2,12.1,7.7,50,31,16,30.06,29.84,10,1,10,0.00
2013-5-5,54.0,41.5,28.0,30.7,18.8,12.7,73,42,25,30.03,29.90,12,2,13,0.00
2013-5-6,46.2,37.4,32.5,39.0,29.4,17.1,96,74,49,29.98,29.81,10,1,13,0.10
2013-5-7,56.3,42.7,34.5,32.9,28.9,21.6,92,62,29,29.98,29.82,13,4,18,0.13
2013-5-8,51.4,40.6,31.6,32.5,23.1,10.6,93,55,22,29.92,29.77,14,3,18,0.00
2013-5-9,50.7,38.9,30.7,30.7,23.1,15.1,89,55,25,30.06,29.88,14,2,16,0.00
2013-5-10,51.3,39.0,29.7,31.3,28.4,21.7,93,69,34,30.20,30.04,14,2,15,0.00
2013-5-11,56.3,41.2,31.8,34.3,29.3,24.3,85,64,30,30.26,30.18,16,2,23,0.00
2013-5-12,61.2,46.4,34.2,37.0,30.3,26.6,88,56,28,30.25,30.06,10,2,12,0.00
2013-5-13,71.6,52.7,38.7,34.0,28.8,22.6,64,43,17,30.13,29.91,9,1,16,0.00
2013-5-14,65.3,50.9,42.4,38.7,32.4,27.0,73,51,25,29.93,29.72,14,2,22,0.02
2013-5-15,62.2,48.3,40.1,44.6,37.9,34.2,88,69,36,29.79,29.70,13,1,14,0.06
2013-5-16,66.7,53.9,41.4,38.5,24.0,11.5,88,38,14,29.83,29.66,16,2,22,0.00
2013-5-17,67.1,55.8,44.2,20.8,13.4,7.0,29,19,10,29.74,29.61,17,3,17,0.00
2013-5-18,60.8,49.8,43.3,30.0,19.9,9.1,54,31,20,29.68,29.53,15,4,21,0.00
2013-5-19,52.9,42.8,32.5,33.3,25.8,16.9,93,54,29,29.66,29.58,22,5,22,0.00
2013-5-20,56.5,44.0,34.9,31.1,26.5,17.8,79,54,22,29.86,29.74,14,3,19,0.00
2013-5-21,58.8,45.0,30.6,32.9,24.9,17.2,93,52,21,29.94,29.78,13,2,18,0.00
2013-5-22,68.4,54.4,38.5,25.0,17.1,10.4,46,25,11,29.83,29.62,14,2,16,0.00
2013-5-23,72.9,58.8,48.4,44.4,22.8,11.5,83,28,10,29.73,29.56,12,2,15,0.00
2013-5-24,72.3,57.0,42.6,45.7,34.0,7.7,95,53,12,29.75,29.66,19,2,19,0.00
2013-5-25,73.2,57.9,45.3,45.3,28.0,8.2,88,42,9,29.75,29.63,16,2,16,0.00
2013-5-26,69.4,58.2,48.7,33.8,12.8,2.1,53,19,8,29.73,29.60,16,3,16,0.00
2013-5-27,64.2,54.0,43.5,12.7,7.1,2.1,22,15,10,29.66,29.52,16,4,28,0.00
2013-5-28,68.0,55.5,43.9,19.4,7.5,-4.2,27,16,6,29.61,29.36,13,3,18,0.00
2013-5-29,57.7,50.1,42.4,32.0,19.0,6.4,59,31,17,29.51,29.31,25,6,29,0.00
2013-5-30,61.2,50.7,38.8,25.2,15.3,7.0,43,27,12,29.68,29.50,26,6,29,0.00
2013-5-31,64.6,54.5,45.9,25.7,12.6,-4.2,39,20,7,29.77,29.57,27,5,28,0.00
2013-6-1,69.4,52.4,37.6,25.9,8.8,-16.1,44,21,4,29.94,29.75,11,2,13,0.00
2013-6-2,71.4,54.6,39.6,35.4,28.1,23.2,57,38,18,29.94,29.68,15,2,17,0.00
2013-6-3,72.9,59.5,47.5,42.4,30.2,19.8,62,36,15,29.73,29.53,20,3,27,0.00
2013-6-4,75.0,63.4,53.8,26.1,20.9,14.5,29,20,12,29.65,29.53,12,3,16,0.00
2013-6-5,66.7,55.4,46.2,46.4,34.9,19.8,69,48,23,29.77,29.55,9,1,11,0.00
2013-6-6,68.5,51.3,39.6,45.9,37.0,28.9,85,61,24,29.89,29.71,25,2,30,0.00
2013-6-7,66.0,52.1,39.4,45.1,35.9,23.9,91,59,23,29.89,29.71,19,2,28,0.00
2013-6-8,75.7,58.6,45.3,42.6,35.6,28.9,71,45,20,29.74,29.56,12,3,15,0.00
2013-6-9,82.6,61.1,44.1,49.1,42.5,30.7,87,56,20,29.74,29.63,10,1,12,0.00
2013-6-10,80.8,67.9,56.5,47.1,33.4,18.0,70,33,11,29.70,29.56,16,2,25,0.00
2013-6-11,80.1,68.2,58.3,27.5,17.3,0.5,27,16,6,29.66,29.53,21,4,21,0.00
2013-6-12,83.8,68.0,52.9,36.3,22.2,10.0,36,19,9,29.75,29.62,15,2,19,0.00
2013-6-13,75.2,60.7,46.9,44.6,35.5,24.6,90,41,22,29.83,29.63,15,2,18,0.35
2013-6-14,68.9,57.9,47.5,50.5,41.8,35.2,83,56,33,29.77,29.62,14,1,16,0.35
2013-6-15,75.6,62.3,48.6,43.5,32.0,17.8,69,37,12,29.76,29.65,15,3,21,0.00
2013-6-16,74.3,61.6,52.3,37.8,33.1,21.9,53,36,18,29.75,29.63,18,3,19,0.00
2013-6-17,73.4,58.7,46.2,42.6,35.8,23.5,76,46,18,29.82,29.67,15,2,18,0.00
2013-6-18,73.2,59.0,45.9,47.8,40.0,28.2,90,56,20,29.83,29.65,12,2,12,0.00
2013-6-19,78.4,63.6,47.7,50.0,26.0,-10.7,91,39,4,29.65,29.48,13,2,16,0.00
2013-6-20,77.9,63.6,50.4,50.4,18.3,-10.5,89,27,4,29.63,29.52,14,3,18,0.00
2013-6-21,77.4,62.7,49.6,43.2,19.5,0.9,73,25,6,29.68,29.55,15,3,20,0.00
2013-6-22,74.5,63.5,54.7,19.4,11.3,3.2,22,13,7,29.64,29.49,15,3,22,0.00
2013-6-23,75.6,64.5,51.8,24.1,9.6,-6.5,23,12,4,29.63,29.47,12,2,16,0.00
2013-6-24,74.8,63.4,53.4,18.9,8.8,-7.2,19,12,5,29.61,29.49,15,3,21,0.00
2013-6-25,74.5,62.3,50.9,27.3,15.4,-2.0,27,17,9,29.71,29.58,18,4,22,0.00
2013-6-26,85.8,68.3,54.7,33.1,28.2,24.1,39,24,12,29.78,29.65,12,2,13,0.00
2013-6-27,88.3,68.8,55.9,37.0,30.3,22.1,39,25,11,29.83,29.69,26,2,30,0.00
2013-6-28,82.8,61.7,54.0,48.9,42.7,34.3,79,51,20,29.90,29.80,18,3,20,0.06
2013-6-29,77.0,59.3,50.4,48.0,41.3,32.4,84,54,26,29.90,29.80,20,2,23,0.01
2013-6-30,75.9,55.6,47.1,51.4,44.7,37.8,97,70,26,29.94,29.71,12,1,16,0.30
2013-7-1,64.2,51.3,45.0,53.2,47.3,44.2,98,87,58,30.06,29.91,16,2,21,0.53
2013-7-2,66.0,53.5,45.0,49.1,46.2,41.2,98,79,43,30.05,29.84,16,1,16,0.53
2013-7-3,67.1,52.8,44.8,55.6,44.5,37.9,97,76,42,29.92,29.71,22,1,23,0.15
2013-7-4,73.9,58.7,46.6,46.0,40.6,34.5,77,53,28,29.80,29.66,27,2,34,0.00
2013-7-5,77.5,59.7,50.4,50.4,45.2,39.2,96,62,28,29.73,29.54,12,2,12,0.08
2013-7-6,75.7,58.5,51.6,54.1,50.1,45.1,93,75,41,29.77,29.60,13,2,13,0.27
2013-7-7,73.8,59.9,50.5,56.8,50.3,45.3,92,72,39,29.79,29.71,17,1,21,0.05
2013-7-8,81.0,61.3,54.5,55.4,49.9,44.4,83,68,30,29.85,29.73,22,1,22,0.02
2013-7-9,82.6,67.0,56.3,54.0,48.0,40.8,84,54,25,29.87,29.80,13,2,13,0.08
2013-7-10,75.6,58.8,52.7,56.7,49.2,45.9,96,72,39,29.88,29.79,15,1,18,0.38
2013-7-11,76.8,61.0,49.3,53.8,49.8,45.3,95,69,40,29.88,29.69,15,2,17,0.00
2013-7-12,73.2,62.4,54.3,51.3,48.7,46.2,78,62,41,29.73,29.62,12,2,14,0.00
2013-7-13,79.0,63.9,55.2,52.2,47.3,41.7,73,57,29,29.77,29.68,13,2,19,0.00
2013-7-14,72.7,57.6,50.7,55.9,51.3,47.7,94,80,44,29.83,29.67,12,3,16,0.29
2013-7-15,62.2,52.9,48.4,52.0,48.7,43.3,98,87,58,29.91,29.78,11,1,13,0.27
2013-7-16,62.8,50.8,41.7,49.5,44.4,40.3,96,80,54,30.06,29.89,11,1,14,0.00
2013-7-17,68.5,54.5,44.1,50.9,46.7,43.0,97,77,48,30.10,29.95,7,0,9,0.00
2013-7-18,72.9,57.9,46.2,53.1,48.1,44.2,97,73,41,30.02,29.78,7,1,9,0.00
2013-7-19,76.8,57.0,48.0,53.2,48.7,45.7,97,77,39,29.86,29.68,11,2,15,0.29
2013-7-20,74.7,59.9,48.2,55.4,50.3,44.1,97,72,44,29.86,29.68,14,1,15,0.49
2013-7-21,72.7,58.8,51.1,52.5,47.6,39.4,91,68,37,29.76,29.65,19,2,28,0.00
2013-7-22,80.6,64.6,51.1,50.7,41.5,29.3,76,47,19,29.77,29.64,7,1,9,0.00
2013-7-23,77.2,63.5,55.0,50.4,42.5,37.6,62,47,27,29.77,29.64,15,1,15,0.00
2013-7-24,79.5,63.7,53.1,50.5,45.9,35.8,84,55,22,29.78,29.65,10,1,14,0.00
2013-7-25,75.9,57.1,46.9,53.6,48.6,45.3,95,76,36,29.95,29.72,14,3,17,0.16
2013-7-26,71.2,53.6,47.1,56.1,49.9,46.4,98,89,54,30.05,29.87,8,1,12,0.50
2013-7-27,72.3,57.4,46.8,49.3,46.8,43.0,97,71,37,30.05,29.75,14,3,15,0.00
2013-7-28,68.2,54.5,47.7,53.4,49.5,46.2,96,84,56,29.78,29.62,15,3,19,0.06
2013-7-29,71.1,58.7,48.4,52.5,46.4,40.8,96,67,34,29.88,29.74,19,3,19,0.04
2013-7-30,75.2,62.9,49.6,46.9,40.6,32.2,80,48,22,29.94,29.85,14,2,16,0.00
2013-7-31,78.3,63.0,50.5,52.5,43.3,29.7,87,55,18,29.94,29.77,13,2,16,0.00
2013-8-1,69.3,58.6,50.0,51.6,48.0,44.6,96,70,43,29.85,29.72,16,3,20,0.05
2013-8-2,75.4,59.1,49.8,53.6,49.3,43.3,96,74,36,29.85,29.71,15,3,18,0.09
2013-8-3,74.3,60.2,50.5,58.6,50.8,45.9,96,74,44,29.84,29.72,9,1,12,0.11
2013-8-4,75.6,60.7,50.7,53.8,49.9,44.2,97,71,36,29.85,29.72,15,2,19,0.08
2013-8-5,75.6,60.9,49.8,49.3,47.1,39.9,94,64,32,29.85,29.68,14,3,20,0.01
2013-8-6,73.6,59.1,49.6,50.0,45.6,37.6,93,65,33,29.75,29.65,12,2,16,0.09
2013-8-7,64.0,52.9,46.9,54.3,48.5,45.1,97,86,56,29.80,29.70,7,1,8,0.18
2013-8-8,63.7,50.7,44.1,50.4,46.5,42.6,98,87,54,29.92,29.75,14,2,18,0.39
2013-8-9,68.7,52.6,40.3,50.0,43.1,31.8,98,76,27,30.04,29.92,10,1,12,0.40
2013-8-10,74.7,55.6,45.7,48.7,44.5,29.8,97,72,24,30.04,29.88,11,1,14,0.33
2013-8-11,70.2,61.0,48.0,47.5,42.0,32.7,80,52,27,30.00,29.88,10,2,11,0.51
2013-8-12,59.5,52.9,48.6,54.1,48.9,44.1,96,87,67,29.94,29.83,10,1,10,0.30
2013-8-13,68.7,60.1,48.7,50.9,44.8,34.5,95,60,30,30.00,29.88,10,2,14,0.12
2013-8-14,72.3,56.5,45.9,50.2,44.6,27.3,98,69,28,29.95,29.83,13,1,15,0.00
2013-8-15,74.5,59.4,46.2,48.6,38.9,23.2,94,54,15,29.93,29.83,11,2,15,0.00
2013-8-16,75.4,61.1,50.4,46.8,39.7,30.6,72,47,22,29.91,29.79,12,1,13,0.12
2013-8-17,74.5,62.1,54.1,49.1,39.2,33.1,61,43,27,29.91,29.74,10,1,10,0.01
2013-8-18,74.5,60.6,51.8,48.6,41.7,32.2,83,52,23,29.87,29.74,9,2,12,0.02
2013-8-19,72.0,59.7,50.0,49.5,45.0,41.5,76,59,40,29.87,29.78,9,1,10,0.00
2013-8-20,79.3,61.2,48.9,50.0,44.8,40.1,84,58,29,29.84,29.71,8,1,9,0.00
2013-8-21,72.1,60.4,52.2,53.2,46.9,41.7,81,62,39,29.85,29.73,8,1,10,0.03
2013-8-22,79.9,62.3,52.3,50.9,44.4,38.1,77,55,27,29.89,29.73,7,1,9,0.03
2013-8-23,76.5,60.8,48.6,46.8,40.4,33.4,76,50,23,29.83,29.67,8,1,8,0.00
2013-8-24,66.2,55.6,51.1,53.6,47.4,43.3,93,75,50,29.94,29.74,8,2,9,0.19
2013-8-25,65.8,55.3,50.2,55.9,49.5,45.3,95,81,58,30.01,29.93,9,2,13,0.17
2013-8-26,71.1,59.2,49.5,52.0,48.5,46.0,90,69,41,30.01,29.85,7,2,9,0.00
2013-8-27,77.4,62.4,51.1,50.7,44.1,34.3,79,54,23,29.88,29.72,9,1,10,0.00
2013-8-28,78.1,62.0,50.7,46.6,43.0,36.5,71,52,28,29.83,29.71,9,1,11,0.00
2013-8-29,80.1,63.6,51.6,51.3,44.6,38.3,80,53,24,29.85,29.75,8,1,11,0.00
2013-8-30,82.4,65.1,52.2,46.0,41.5,32.7,74,46,18,29.86,29.71,8,1,10,0.00
2013-8-31,77.4,62.9,53.8,49.6,44.0,40.8,74,51,29,29.74,29.62,11,2,12,0.02
2013-9-1,71.1,57.5,49.6,53.4,49.2,45.3,91,75,45,29.93,29.72,7,1,10,0.04
2013-9-2,73.6,55.6,49.1,54.1,49.6,44.1,97,82,42,29.93,29.83,10,1,13,0.10
2013-9-3,72.9,58.0,48.6,53.1,49.3,46.0,96,75,47,29.94,29.86,6,1,9,0.01
2013-9-4,81.1,62.7,50.0,51.3,43.5,35.6,91,55,22,29.95,29.83,8,1,10,0.00
2013-9-5,81.0,62.7,50.0,42.8,36.7,33.4,60,41,20,29.92,29.81,7,1,9,0.00
2013-9-6,77.9,61.9,50.4,40.6,35.5,31.1,58,39,20,29.91,29.75,8,1,10,0.00
2013-9-7,79.5,61.5,50.2,44.4,38.7,34.2,65,45,21,29.85,29.69,9,1,11,0.00
2013-9-8,76.1,59.5,48.4,45.1,41.7,38.5,71,53,32,29.79,29.62,7,1,9,0.00
2013-9-9,72.7,58.3,48.4,46.6,43.3,39.2,83,59,38,29.70,29.56,8,1,11,0.00
2013-9-10,65.5,52.3,44.8,50.0,46.2,42.3,97,82,49,29.89,29.68,7,1,9,0.28
2013-9-11,59.4,52.0,48.2,55.4,50.7,47.3,98,96,84,29.93,29.84,4,1,5,1.01
2013-9-12,53.6,50.2,47.7,52.7,49.6,46.9,98,98,96,29.96,29.89,5,1,6,0.53
2013-9-13,52.3,48.4,46.6,50.4,47.5,46.0,98,97,90,29.88,29.80,5,1,5,1.00
2013-9-14,55.9,48.9,44.6,50.2,47.0,43.9,98,93,80,29.88,29.76,10,2,14,0.18
2013-9-15,57.4,50.4,45.9,52.9,47.6,44.6,98,91,73,30.02,29.90,6,0,7,0.32
2013-9-16,60.4,50.1,41.9,52.2,46.7,41.4,98,89,63,30.05,29.91,10,1,10,0.04
2013-9-17,63.7,53.4,45.0,48.9,45.9,41.0,98,78,45,29.97,29.73,13,3,16,0.01
2013-9-18,61.9,52.7,48.6,52.0,47.3,42.4,97,82,63,29.77,29.65,11,2,14,0.03
2013-9-19,64.0,53.0,44.2,51.8,42.8,32.7,98,73,34,29.84,29.71,11,1,11,0.20
2013-9-20,64.6,52.3,42.8,44.8,40.3,30.7,97,68,34,29.88,29.79,11,2,13,0.00
2013-9-21,65.7,54.2,45.5,48.7,42.6,34.7,97,69,34,29.87,29.68,10,2,13,0.00
2013-9-22,65.5,50.2,33.4,43.7,39.7,30.2,97,71,28,29.68,29.38,20,3,25,0.90
2013-9-23,53.8,41.9,32.9,37.9,32.3,27.3,96,71,44,30.07,29.42,13,3,15,0.92
2013-9-24,63.7,48.5,35.2,33.4,23.4,3.6,72,43,10,30.11,29.88,11,2,14,0.00
2013-9-25,62.1,53.5,45.0,37.0,31.1,20.8,57,43,33,29.88,29.48,18,5,22,0.00
2013-9-26,63.3,53.7,47.1,35.4,28.8,18.9,51,39,19,29.58,29.48,20,5,23,0.00
2013-9-27,59.2,44.6,30.6,45.0,33.9,23.4,95,69,40,29.79,29.43,19,5,26,0.02
2013-9-28,54.7,39.2,25.3,30.6,21.8,16.5,77,52,29,30.23,29.79,13,3,19,0.00
2013-9-29,57.7,46.3,37.0,23.5,20.1,14.7,54,37,24,30.20,29.92,17,4,21,0.00
2013-9-30,62.4,51.5,40.6,29.3,21.9,16.2,44,31,22,29.95,29.71,15,4,17,0.00
2013-10-1,67.3,53.9,43.2,35.6,29.7,21.2,56,40,29,29.83,29.71,11,2,12,0.00
2013-10-2,61.3,51.9,45.1,33.4,20.4,13.1,55,30,18,29.78,29.67,18,3,18,0.00
2013-10-3,57.0,49.6,43.7,30.4,21.0,14.4,55,33,22,29.71,29.52,20,5,20,0.00
2013-10-4,48.6,38.8,28.8,26.2,11.8,-6.7,65,35,12,29.98,29.52,18,5,24,0.00
2013-10-5,44.4,32.4,20.5,17.2,13.4,7.7,68,46,31,30.30,29.97,13,3,13,0.00
2013-10-6,57.7,42.2,28.2,20.3,13.5,1.9,56,35,13,30.35,30.18,12,2,15,0.00
2013-10-7,58.8,46.8,36.1,20.3,15.9,9.9,41,29,19,30.20,29.95,14,3,16,0.00
2013-10-8,57.9,48.7,41.9,25.7,21.2,12.7,42,34,25,29.96,29.68,16,3,19,0.00
2013-10-9,57.6,47.9,40.1,30.6,25.3,14.0,58,43,18,29.79,29.65,12,3,17,0.00
2013-10-10,57.2,40.0,25.9,36.5,29.5,23.0,96,70,32,29.75,29.42,21,4,25,0.12
2013-10-11,39.6,30.2,25.0,32.4,26.8,23.0,94,87,71,30.16,29.72,19,6,22,0.18
2013-10-12,49.1,35.9,26.2,32.7,27.0,21.9,96,74,36,30.24,30.10,10,1,12,0.01
2013-10-13,59.2,44.2,33.3,42.8,35.1,28.2,94,73,34,30.19,29.84,12,1,15,0.00
2013-10-14,43.9,38.7,31.5,40.1,25.6,16.5,93,62,34,30.00,29.72,25,6,27,0.05
2013-10-15,45.0,33.0,25.0,29.8,23.4,13.1,95,69,42,30.10,29.97,11,1,11,0.00
2013-10-16,34.7,28.5,24.3,29.7,24.5,19.0,96,85,66,30.19,30.01,17,1,18,0.01
2013-10-17,44.2,32.2,22.6,26.2,18.3,11.1,84,59,29,30.21,29.99,16,2,17,0.02
2013-10-18,41.7,33.0,27.0,17.4,12.1,9.3,53,42,29,30.14,29.94,12,3,15,0.00
2013-10-19,44.2,34.2,23.4,17.8,15.1,9.5,72,47,31,30.18,30.03,19,4,19,0.00
2013-10-20,49.3,38.5,28.2,26.4,18.2,13.6,72,46,25,30.04,29.83,13,3,15,0.00
2013-10-21,45.1,35.0,26.4,31.6,25.0,16.3,97,70,33,30.17,29.94,11,2,11,0.02
2013-10-22,51.6,40.1,28.6,25.0,20.3,14.4,73,47,27,30.25,30.12,12,2,16,0.00
2013-10-23,56.7,44.1,34.2,22.8,17.6,7.3,52,36,14,30.14,29.99,11,2,12,0.00
2013-10-24,55.6,42.7,32.5,27.7,22.6,15.4,63,47,21,30.13,30.01,10,1,11,0.00
2013-10-25,46.9,39.2,33.4,38.7,34.2,26.4,96,83,57,30.13,29.98,14,3,14,0.07
2013-10-26,49.6,38.0,30.6,32.0,28.6,18.3,97,72,29,30.26,30.09,9,2,10,0.01
2013-10-27,48.0,39.4,33.3,32.4,30.1,28.0,82,70,50,30.20,29.84,13,3,18,0.00
2013-10-28,52.0,41.3,34.3,33.3,26.5,19.8,80,57,34,29.87,29.77,14,2,15,0.00
2013-10-29,48.9,41.0,32.4,30.6,20.4,16.7,93,44,29,29.88,29.73,22,3,25,0.00
2013-10-30,35.8,29.8,24.4,30.9,27.7,23.2,96,92,79,29.84,29.73,15,2,17,0.00
2013-10-31,29.8,24.6,20.7,25.3,22.1,18.7,95,90,81,30.13,29.79,16,5,21,0.00
2013-11-1,37.9,29.1,20.5,25.3,21.3,16.9,91,73,56,30.35,30.11,15,2,18,0.09
2013-11-2,48.6,36.0,25.5,25.3,19.4,6.8,79,54,20,30.37,30.01,14,3,16,0.03
2013-11-3,39.9,36.3,33.1,30.4,24.3,18.3,77,62,49,30.01,29.60,21,6,25,0.00
2013-11-4,45.7,36.0,28.8,29.7,22.0,13.1,95,60,29,29.90,29.73,18,3,19,0.00
2013-11-5,32.2,26.5,17.1,30.7,23.6,14.2,97,89,76,30.22,29.71,2,0,2,0.00
2013-11-6,32.7,23.2,12.0,19.0,14.2,7.0,91,70,38,30.62,30.22,15,2,20,0.00
2013-11-7,48.2,34.0,20.8,24.6,18.5,14.5,81,55,30,30.63,30.26,8,2,11,0.26
2013-11-8,44.4,36.5,28.9,21.0,16.7,12.7,53,44,32,30.26,29.95,17,5,22,0.01
2013-11-9,51.6,40.0,31.5,19.8,16.9,11.5,53,40,21,30.17,30.07,11,2,12,0.00
2013-11-10,51.3,41.2,34.2,20.5,16.1,12.0,46,37,22,30.22,30.12,11,2,11,0.00
2013-11-11,50.0,39.5,30.4,22.5,15.9,6.6,59,40,18,30.36,30.15,10,1,11,0.00
2013-11-12,48.9,33.6,22.8,27.3,20.3,13.1,80,59,31,30.53,30.36,7,1,7,0.00
2013-11-13,45.1,34.9,25.2,27.0,22.0,13.6,85,62,28,30.51,30.05,13,3,14,0.00
2013-11-14,44.2,34.1,28.0,28.2,24.7,17.4,92,70,35,30.06,29.89,11,3,14,0.00
2013-11-15,41.4,34.0,29.7,31.8,23.3,16.0,95,67,41,29.89,29.55,24,6,28,0.00
2013-11-16,34.3,31.7,29.3,29.8,27.7,25.7,95,85,73,29.65,29.47,30,8,37,0.00
2013-11-17,40.3,31.9,28.0,27.1,24.6,23.0,86,75,55,30.18,29.57,36,7,39,0.00
2013-11-18,43.3,32.9,25.3,23.0,18.7,12.2,78,57,29,30.25,30.11,12,2,15,0.00
2013-11-19,41.9,35.1,29.7,27.9,24.0,19.0,73,64,53,30.12,29.81,19,4,19,0.00
2013-11-20,39.0,32.8,28.9,28.9,25.4,22.5,97,75,55,29.87,29.73,14,3,16,0.00
2013-11-21,39.0,32.1,29.7,32.9,30.4,28.6,97,94,76,30.13,29.80,12,2,15,0.05
2013-11-22,29.7,22.1,17.4,28.6,20.5,15.8,96,94,90,30.52,30.12,1,0,2,0.00
2013-11-23,23.7,20.5,18.1,21.2,18.9,16.7,95,93,89,30.63,30.43,0,0,0,0.00
2013-11-24,22.6,17.2,14.7,19.4,15.2,13.1,94,92,84,30.44,30.12,15,2,22,0.00
2013-11-25,27.3,19.4,12.6,20.5,15.3,10.8,95,84,70,30.49,30.12,28,5,32,0.00
2013-11-26,32.5,21.9,15.4,21.7,16.4,12.2,93,80,54,30.55,30.47,6,0,8,0.00
2013-11-27,37.8,25.2,17.4,26.6,20.8,15.4,95,84,62,30.50,30.26,7,0,7,0.03
2013-11-28,43.3,29.4,20.8,19.9,15.0,10.6,90,58,27,30.34,30.23,6,0,7,0.01
2013-11-29,36.0,29.1,24.4,22.3,19.4,14.7,76,67,49,30.32,30.21,25,5,25,0.00
2013-11-30,38.8,31.9,28.0,23.5,20.9,17.8,76,64,45,30.30,30.17,16,5,18,0.00
2013-12-1,34.7,28.2,22.3,23.7,19.4,14.7,82,70,45,30.22,30.09,21,4,22,0.00
2013-12-2,39.0,29.4,21.2,22.5,19.0,14.9,86,66,46,30.12,29.83,20,6,24,0.00
2013-12-3,40.3,33.2,26.4,21.2,17.4,15.1,68,53,40,29.85,29.54,18,4,18,0.00
2013-12-4,36.0,28.5,16.9,23.2,17.6,13.6,91,66,43,29.74,29.30,28,8,32,0.00
2013-12-5,19.9,16.2,11.1,16.3,13.3,8.2,91,88,82,30.01,29.72,14,2,18,0.00
2013-12-6,13.6,10.5,8.4,8.2,5.7,3.0,89,81,70,30.35,29.98,20,5,22,0.00
2013-12-7,21.4,16.4,10.8,16.0,10.5,3.2,91,77,68,30.35,29.86,16,4,23,0.00
2013-12-8,16.7,10.3,6.1,14.5,4.8,-4.2,92,79,55,30.18,29.68,21,5,27,0.00
2013-12-9,9.7,5.2,-0.6,5.2,-2.2,-8.5,87,72,48,30.73,30.17,19,4,22,0.00
2013-12-10,24.6,13.8,0.0,3.4,-2.5,-11.4,72,49,31,30.77,30.50,24,6,24,0.00
2013-12-11,28.2,21.3,14.4,7.0,4.0,1.4,57,47,37,30.65,30.49,15,3,18,0.00
2013-12-12,38.8,28.1,17.8,22.6,5.9,-5.4,85,41,21,30.64,30.09,13,2,13,0.00
2013-12-13,30.7,24.5,18.7,24.8,18.3,8.8,95,78,54,30.12,29.86,13,3,16,0.00
2013-12-14,29.3,19.5,11.7,14.5,9.9,6.8,88,67,45,30.54,30.12,18,2,18,0.00
2013-12-15,36.5,24.8,15.4,16.5,12.3,8.2,76,60,41,30.52,30.41,9,2,12,0.00
2013-12-16,44.2,32.6,22.8,17.2,12.9,7.0,58,44,32,30.46,30.30,11,2,13,0.00
2013-12-17,48.7,35.7,27.1,11.5,7.0,2.3,42,31,18,30.40,30.23,9,1,10,0.00
2013-12-18,43.3,34.6,30.2,12.2,8.4,3.7,43,34,21,30.23,29.83,16,4,17,0.00
2013-12-19,37.6,31.7,27.0,20.3,15.1,6.1,69,51,34,29.85,29.60,13,3,19,0.00
2013-12-20,33.6,27.2,21.6,19.6,16.7,14.5,86,65,47,29.75,29.62,11,2,14,0.00
2013-12-21,24.3,20.1,16.9,17.8,15.9,13.6,93,84,66,29.88,29.48,18,3,19,0.00
2013-12-22,20.7,16.2,11.7,15.1,11.6,7.9,93,82,59,30.39,29.88,12,2,15,0.00
2013-12-23,27.3,19.8,11.5,10.0,7.9,3.0,86,62,36,30.60,30.36,20,5,20,0.00
2013-12-24,34.5,24.5,18.3,19.9,14.4,7.9,81,65,54,30.51,30.19,17,4,20,0.00
2013-12-25,35.1,20.8,11.7,14.4,5.9,0.5,91,56,26,30.54,30.32,7,1,8,0.00
2013-12-26,42.1,27.4,18.7,8.6,2.8,-1.7,51,35,20,30.53,30.32,5,0,8,0.00
2013-12-27,39.6,26.8,16.3,12.7,8.5,4.6,60,46,29,30.44,30.27,9,1,10,0.00
2013-12-28,36.1,27.4,21.6,15.3,12.4,9.5,72,53,38,30.27,29.88,14,3,15,0.00
2013-12-29,23.9,19.1,15.6,19.8,16.2,12.2,92,88,72,30.24,29.97,18,2,18,0.00
2013-12-30,34.9,24.6,18.1,16.9,13.3,9.3,91,64,39,30.39,30.22,16,4,19,0.01
2013-12-31,32.7,25.3,19.9,16.5,13.6,10.4,70,61,48,30.36,30.12,16,4,23,0.00
2014-1-1,35.1,26.0,21.2,18.7,14.0,1.9,76,61,37,30.32,30.01,20,5,22,0.00
2014-1-2,39.0,28.7,21.9,8.8,5.2,-2.6,56,38,17,30.39,30.20,14,4,17,0.00